createdAt,value
2017-07-19T00:01:04.662Z,13.47
2017-07-19T00:03:32.132Z,9.43
2017-07-19T00:05:59.633Z,8.13
2017-07-19T00:08:27.489Z,9.80
2017-07-19T00:10:55.338Z,10.97
2017-07-19T00:13:22.836Z,9.67
2017-07-19T00:15:50.302Z,7.40
2017-07-19T00:18:17.767Z,9.27
2017-07-19T00:20:45.272Z,10.30
2017-07-19T00:23:13.126Z,11.27
2017-07-19T00:25:40.579Z,8.47
2017-07-19T00:28:08.073Z,8.33
2017-07-19T00:30:35.531Z,12.87
2017-07-19T00:33:02.983Z,8.90
2017-07-19T00:35:30.511Z,9.53
2017-07-19T00:37:57.969Z,9.60
2017-07-19T00:40:25.836Z,9.00
2017-07-19T00:42:53.731Z,9.17
2017-07-19T00:45:21.192Z,10.40
2017-07-19T00:47:48.645Z,7.97
2017-07-19T00:50:16.394Z,10.77
2017-07-19T00:52:43.851Z,9.30
2017-07-19T00:55:11.318Z,10.77
2017-07-19T00:57:39.136Z,8.73
2017-07-19T01:00:06.591Z,8.97
2017-07-19T01:02:34.039Z,12.33
2017-07-19T01:05:01.707Z,8.20
2017-07-19T01:07:29.163Z,8.97
2017-07-19T01:09:56.614Z,10.83
2017-07-19T01:12:24.203Z,9.97
2017-07-19T01:14:52.051Z,8.20
2017-07-19T01:17:19.910Z,10.80
2017-07-19T01:19:47.800Z,10.30
2017-07-19T01:22:15.260Z,11.03
2017-07-19T01:24:42.725Z,13.33
2017-07-19T01:27:10.301Z,8.17
2017-07-19T01:29:38.546Z,8.33
2017-07-19T01:32:06.016Z,10.67
2017-07-19T01:34:33.515Z,9.83
2017-07-19T01:37:00.966Z,7.30
2017-07-19T01:39:28.432Z,11.20
2017-07-19T01:41:55.936Z,9.70
2017-07-19T01:44:23.412Z,10.87
2017-07-19T01:46:50.874Z,13.13
2017-07-19T01:49:18.359Z,13.73
2017-07-19T01:51:45.822Z,11.73
2017-07-19T01:54:13.271Z,9.43
2017-07-19T01:56:41.257Z,9.53
2017-07-19T01:59:08.714Z,11.43
2017-07-19T02:01:36.188Z,8.77
2017-07-19T02:04:03.772Z,10.10
2017-07-19T02:06:31.230Z,12.93
2017-07-19T02:08:58.690Z,12.07
2017-07-19T02:11:26.183Z,8.60
2017-07-19T02:13:54.030Z,10.50
2017-07-19T02:16:21.487Z,8.80
2017-07-19T02:18:48.980Z,11.03
2017-07-19T02:21:16.428Z,7.90
2017-07-19T02:23:43.869Z,8.27
2017-07-19T02:26:11.737Z,11.30
2017-07-19T02:28:39.177Z,9.27
2017-07-19T02:31:06.620Z,10.40
2017-07-19T02:33:34.092Z,10.30
2017-07-19T02:36:01.944Z,10.47
2017-07-19T02:38:29.385Z,9.03
2017-07-19T02:40:57.044Z,12.60
2017-07-19T02:43:24.484Z,9.63
2017-07-19T02:45:51.932Z,13.00
2017-07-19T02:48:20.432Z,10.90
2017-07-19T02:50:47.883Z,17.77
2017-07-19T02:53:15.328Z,10.57
2017-07-19T02:55:42.791Z,11.20
2017-07-19T02:58:10.259Z,7.93
2017-07-19T03:00:37.680Z,8.97
2017-07-19T03:03:05.156Z,9.87
2017-07-19T03:05:32.605Z,8.60
2017-07-19T03:08:00.049Z,9.20
2017-07-19T03:10:28.657Z,8.37
2017-07-19T03:12:56.096Z,12.57
2017-07-19T03:15:23.542Z,14.20
2017-07-19T03:17:51.197Z,11.87
2017-07-19T03:20:18.634Z,7.97
2017-07-19T03:22:49.064Z,8.37
2017-07-19T03:25:16.868Z,9.17
2017-07-19T03:27:44.317Z,10.37
2017-07-19T03:30:11.764Z,13.93
2017-07-19T03:32:39.244Z,9.50
2017-07-19T03:35:06.680Z,9.63
2017-07-19T03:37:34.129Z,25.73
2017-07-19T03:40:01.800Z,16.07
2017-07-19T03:42:29.249Z,13.07
2017-07-19T03:44:56.696Z,13.13
2017-07-19T03:47:24.474Z,12.27
2017-07-19T03:49:51.913Z,9.23
2017-07-19T03:52:19.357Z,10.13
2017-07-19T03:54:47.039Z,9.93
2017-07-19T03:57:14.496Z,11.47
2017-07-19T03:59:41.940Z,9.37
2017-07-19T04:02:09.421Z,8.20
2017-07-19T04:04:36.881Z,10.53
2017-07-19T04:07:04.321Z,10.93
2017-07-19T04:09:31.786Z,11.53
2017-07-19T04:11:59.477Z,9.40
2017-07-19T04:14:26.928Z,10.30
2017-07-19T04:16:54.803Z,12.53
2017-07-19T04:19:22.249Z,11.23
2017-07-19T04:21:49.700Z,9.20
2017-07-19T04:24:17.760Z,9.50
2017-07-19T04:26:45.601Z,8.40
2017-07-19T04:29:13.039Z,8.40
2017-07-19T04:31:40.527Z,11.13
2017-07-19T04:34:07.981Z,7.67
2017-07-19T04:36:35.431Z,8.33
2017-07-19T04:39:02.900Z,9.07
2017-07-19T04:41:30.737Z,13.37
2017-07-19T04:43:58.180Z,13.00
2017-07-19T04:46:25.665Z,12.60
2017-07-19T04:48:53.114Z,15.03
2017-07-19T04:51:20.562Z,11.03
2017-07-19T04:53:48.316Z,12.47
2017-07-19T04:56:15.763Z,11.77
2017-07-19T04:58:43.196Z,12.73
2017-07-19T05:01:10.685Z,11.07
2017-07-19T05:03:38.128Z,11.80
2017-07-19T05:06:05.572Z,13.07
2017-07-19T05:08:33.033Z,12.07
2017-07-19T05:11:00.476Z,15.13
2017-07-19T05:13:27.924Z,8.63
2017-07-19T05:15:55.721Z,14.10
2017-07-19T05:18:23.160Z,9.83
2017-07-19T05:20:50.604Z,11.53
2017-07-19T05:23:18.246Z,8.67
2017-07-19T05:25:45.679Z,11.60
2017-07-19T05:28:13.524Z,11.03
2017-07-19T05:30:41.003Z,16.70
2017-07-19T05:33:08.845Z,11.03
2017-07-19T05:35:36.303Z,10.60
2017-07-19T05:38:03.853Z,9.57
2017-07-19T05:40:31.296Z,10.67
2017-07-19T05:42:58.748Z,11.03
2017-07-19T05:45:26.412Z,11.10
2017-07-19T05:47:53.860Z,10.33
2017-07-19T05:50:21.300Z,8.40
2017-07-19T05:52:48.968Z,8.83
2017-07-19T05:55:16.444Z,7.97
2017-07-19T05:57:43.888Z,9.00
2017-07-19T06:00:11.360Z,12.83
2017-07-19T06:02:38.799Z,7.93
2017-07-19T06:05:06.231Z,8.60
2017-07-19T06:07:33.888Z,9.10
2017-07-19T06:10:01.334Z,10.20
2017-07-19T06:12:28.777Z,10.83
2017-07-19T06:14:56.259Z,15.30
2017-07-19T06:17:23.708Z,7.53
2017-07-19T06:19:51.139Z,9.23
2017-07-19T06:22:18.619Z,12.00
2017-07-19T06:24:46.055Z,9.80
2017-07-19T06:27:13.491Z,9.37
2017-07-19T06:29:41.552Z,11.70
2017-07-19T06:32:09.389Z,9.63
2017-07-19T06:34:36.833Z,8.40
2017-07-19T06:37:04.383Z,10.13
2017-07-19T06:39:31.835Z,12.60
2017-07-19T06:41:59.279Z,8.30
2017-07-19T06:44:26.765Z,10.73
2017-07-19T06:46:54.204Z,8.67
2017-07-19T06:49:21.647Z,8.47
2017-07-19T06:51:49.397Z,12.80
2017-07-19T06:54:16.843Z,10.43
2017-07-19T06:56:44.277Z,7.30
2017-07-19T06:59:12.407Z,12.10
2017-07-19T07:01:39.854Z,10.33
2017-07-19T07:04:07.297Z,10.60
2017-07-19T07:06:34.768Z,10.30
2017-07-19T07:09:02.212Z,9.17
2017-07-19T07:11:29.651Z,10.70
2017-07-19T07:13:57.223Z,10.37
2017-07-19T07:16:24.674Z,7.50
2017-07-19T07:18:52.113Z,9.90
2017-07-19T07:21:19.921Z,7.87
2017-07-19T07:23:48.052Z,7.57
2017-07-19T07:26:15.497Z,8.63
2017-07-19T07:28:42.956Z,11.30
2017-07-19T07:31:10.396Z,9.00
2017-07-19T07:33:37.839Z,11.77
2017-07-19T07:36:05.878Z,9.70
2017-07-19T07:38:33.314Z,7.67
2017-07-19T07:41:00.756Z,9.10
2017-07-19T07:43:28.232Z,7.47
2017-07-19T07:45:55.678Z,7.37
2017-07-19T07:48:23.119Z,10.00
2017-07-19T07:50:50.584Z,8.60
2017-07-19T07:53:18.033Z,6.80
2017-07-19T07:55:45.483Z,8.83
2017-07-19T07:58:12.967Z,6.57
2017-07-19T08:00:40.408Z,7.60
2017-07-19T08:03:07.848Z,7.20
2017-07-19T08:05:35.644Z,10.10
2017-07-19T08:08:03.091Z,11.10
2017-07-19T08:10:30.535Z,7.00
2017-07-19T08:12:58.222Z,8.03
2017-07-19T08:15:25.681Z,9.40
2017-07-19T08:17:53.120Z,9.80
2017-07-19T08:20:20.887Z,7.87
2017-07-19T08:22:48.336Z,7.50
2017-07-19T08:25:15.781Z,9.93
2017-07-19T08:27:43.232Z,10.60
2017-07-19T08:30:10.668Z,9.13
2017-07-19T08:32:38.112Z,11.53
2017-07-19T08:35:05.924Z,7.17
2017-07-19T08:37:33.369Z,6.30
2017-07-19T08:40:00.808Z,8.87
2017-07-19T08:42:28.288Z,8.87
2017-07-19T08:44:55.737Z,7.40
2017-07-19T08:47:23.174Z,9.13
2017-07-19T08:49:50.648Z,7.97
2017-07-19T08:52:18.089Z,10.70
2017-07-19T08:54:45.524Z,7.60
2017-07-19T08:57:12.998Z,9.40
2017-07-19T08:59:40.440Z,9.33
2017-07-19T09:02:07.884Z,8.47
2017-07-19T09:04:35.439Z,7.13
2017-07-19T09:07:02.884Z,8.20
2017-07-19T09:09:30.713Z,7.67
2017-07-19T09:11:58.372Z,10.43
2017-07-19T09:14:25.813Z,8.73
2017-07-19T09:16:53.340Z,10.73
2017-07-19T09:19:20.792Z,8.83
2017-07-19T09:21:48.224Z,7.73
2017-07-19T09:24:15.665Z,7.97
2017-07-19T09:26:43.221Z,8.43
2017-07-19T09:29:10.659Z,6.97
2017-07-19T09:31:38.104Z,7.70
2017-07-19T09:34:05.568Z,7.90
2017-07-19T09:36:33.012Z,8.63
2017-07-19T09:39:00.456Z,10.67
2017-07-19T09:41:27.924Z,13.27
2017-07-19T09:43:55.374Z,8.60
2017-07-19T09:46:22.816Z,7.73
2017-07-19T09:48:50.505Z,6.53
2017-07-19T09:51:17.951Z,13.70
2017-07-19T09:53:45.393Z,8.13
2017-07-19T09:56:13.092Z,9.87
2017-07-19T09:58:40.528Z,9.80
2017-07-19T10:01:07.970Z,9.13
2017-07-19T10:03:35.444Z,6.90
2017-07-19T10:06:02.885Z,9.47
2017-07-19T10:08:30.331Z,11.83
2017-07-19T10:10:58.010Z,6.63
2017-07-19T10:13:25.449Z,8.27
2017-07-19T10:15:52.892Z,7.23
2017-07-19T10:18:20.363Z,9.43
2017-07-19T10:20:47.802Z,7.90
2017-07-19T10:23:15.245Z,6.47
2017-07-19T10:25:42.717Z,7.33
2017-07-19T10:28:10.162Z,8.43
2017-07-19T10:30:37.599Z,8.10
2017-07-19T10:33:05.054Z,8.47
2017-07-19T10:35:32.497Z,7.40
2017-07-19T10:38:00.323Z,8.13
2017-07-19T10:40:28.084Z,6.47
2017-07-19T10:42:55.525Z,7.47
2017-07-19T10:45:22.968Z,7.20
2017-07-19T10:47:50.647Z,6.00
2017-07-19T10:50:18.095Z,6.70
2017-07-19T10:52:45.529Z,5.90
2017-07-19T10:55:13.224Z,6.30
2017-07-19T10:57:40.657Z,7.73
2017-07-19T11:00:08.111Z,6.90
2017-07-19T11:02:35.584Z,7.30
2017-07-19T11:05:03.024Z,6.43
2017-07-19T11:07:30.463Z,6.87
2017-07-19T11:09:58.223Z,8.00
2017-07-19T11:12:25.677Z,6.73
2017-07-19T11:14:53.116Z,7.93
2017-07-19T11:17:20.580Z,9.83
2017-07-19T11:19:48.024Z,8.50
2017-07-19T11:22:15.473Z,6.23
2017-07-19T11:24:43.307Z,8.23
2017-07-19T11:27:10.740Z,7.40
2017-07-19T11:29:38.184Z,6.43
2017-07-19T11:32:05.876Z,6.63
2017-07-19T11:34:33.314Z,8.03
2017-07-19T11:37:00.756Z,6.53
2017-07-19T11:39:28.299Z,5.77
2017-07-19T11:41:55.736Z,5.77
2017-07-19T11:44:23.184Z,6.23
2017-07-19T11:46:51.345Z,7.20
2017-07-19T11:49:19.184Z,7.40
2017-07-19T11:51:46.625Z,8.57
2017-07-19T11:54:14.113Z,6.00
2017-07-19T11:56:41.544Z,6.53
2017-07-19T11:59:08.985Z,6.33
2017-07-19T12:01:36.440Z,6.10
2017-07-19T12:04:03.876Z,9.47
2017-07-19T12:06:31.319Z,8.40
2017-07-19T12:08:58.879Z,6.90
2017-07-19T12:11:26.330Z,8.33
2017-07-19T12:13:53.766Z,6.63
2017-07-19T12:16:21.901Z,6.07
2017-07-19T12:18:49.350Z,8.40
2017-07-19T12:21:16.786Z,5.67
2017-07-19T12:23:44.281Z,6.30
2017-07-19T12:26:11.724Z,6.17
2017-07-19T12:28:39.169Z,5.93
2017-07-19T12:31:06.640Z,6.83
2017-07-19T12:33:34.083Z,6.53
2017-07-19T12:36:02.092Z,10.50
2017-07-19T12:38:29.948Z,5.93
2017-07-19T12:40:57.785Z,5.57
2017-07-19T12:43:25.224Z,5.80
2017-07-19T12:45:52.704Z,5.60
2017-07-19T12:48:20.147Z,7.03
2017-07-19T12:50:47.588Z,8.20
2017-07-19T12:53:15.263Z,5.80
2017-07-19T12:55:42.709Z,8.50
2017-07-19T12:58:10.152Z,5.57
2017-07-19T13:00:37.616Z,7.60
2017-07-19T13:03:05.059Z,5.50
2017-07-19T13:05:32.500Z,5.87
2017-07-19T13:07:59.968Z,5.90
2017-07-19T13:10:27.408Z,7.23
2017-07-19T13:12:54.848Z,5.53
2017-07-19T13:15:22.513Z,6.30
2017-07-19T13:17:49.953Z,5.93
2017-07-19T13:20:17.784Z,6.03
2017-07-19T13:22:45.549Z,6.20
2017-07-19T13:25:12.996Z,9.00
2017-07-19T13:27:40.432Z,6.10
2017-07-19T13:30:07.911Z,5.70
2017-07-19T13:32:35.365Z,5.77
2017-07-19T13:35:02.898Z,9.10
2017-07-19T13:37:30.346Z,5.77
2017-07-19T13:39:57.791Z,5.40
2017-07-19T13:42:25.244Z,4.73
2017-07-19T13:44:52.949Z,5.70
2017-07-19T13:47:20.401Z,7.63
2017-07-19T13:49:47.848Z,6.30
2017-07-19T13:52:15.329Z,7.00
2017-07-19T13:54:42.785Z,7.10
2017-07-19T13:57:10.225Z,5.87
2017-07-19T13:59:37.695Z,5.83
2017-07-19T14:02:05.133Z,5.63
2017-07-19T14:04:32.573Z,8.00
2017-07-19T14:07:00.249Z,8.80
2017-07-19T14:09:27.700Z,5.70
2017-07-19T14:11:55.137Z,7.63
2017-07-19T14:14:22.608Z,7.20
2017-07-19T14:16:50.041Z,5.33
2017-07-19T14:19:17.489Z,6.00
2017-07-19T14:21:45.187Z,6.10
2017-07-19T14:24:12.629Z,6.30
2017-07-19T14:26:40.071Z,6.50
2017-07-19T14:29:07.636Z,7.83
2017-07-19T14:31:35.081Z,7.53
2017-07-19T14:34:02.529Z,5.67
2017-07-19T14:36:30.001Z,5.93
2017-07-19T14:38:57.446Z,7.07
2017-07-19T14:41:24.889Z,6.40
2017-07-19T14:43:52.593Z,6.27
2017-07-19T14:46:20.025Z,6.13
2017-07-19T14:48:47.470Z,5.50
2017-07-19T14:51:15.042Z,6.83
2017-07-19T14:53:42.486Z,6.43
2017-07-19T14:56:09.932Z,5.77
2017-07-19T14:58:37.396Z,6.90
2017-07-19T15:01:04.847Z,6.20
2017-07-19T15:03:32.288Z,6.60
2017-07-19T15:05:59.767Z,6.93
2017-07-19T15:08:27.210Z,6.97
2017-07-19T15:10:54.652Z,6.77
2017-07-19T15:13:22.103Z,5.90
2017-07-19T15:15:49.544Z,6.90
2017-07-19T15:18:17.385Z,6.23
2017-07-19T15:20:45.129Z,7.83
2017-07-19T15:23:12.568Z,5.90
2017-07-19T15:25:40.012Z,6.47
2017-07-19T15:28:07.479Z,5.90
2017-07-19T15:30:34.928Z,6.00
2017-07-19T15:33:02.377Z,8.87
2017-07-19T15:35:29.927Z,6.50
2017-07-19T15:37:57.373Z,7.13
2017-07-19T15:40:24.856Z,7.00
2017-07-19T15:42:52.311Z,7.00
2017-07-19T15:45:19.757Z,6.30
2017-07-19T15:47:47.202Z,5.83
2017-07-19T15:50:14.677Z,5.80
2017-07-19T15:52:42.117Z,6.80
2017-07-19T15:55:09.552Z,7.10
2017-07-19T15:57:37.265Z,8.80
2017-07-19T16:00:04.700Z,6.30
2017-07-19T16:02:32.145Z,6.60
2017-07-19T16:04:59.949Z,8.53
2017-07-19T16:07:27.388Z,6.40
2017-07-19T16:09:54.838Z,7.03
2017-07-19T16:12:22.304Z,6.33
2017-07-19T16:14:49.736Z,6.00
2017-07-19T16:17:17.184Z,6.63
2017-07-19T16:19:44.769Z,7.07
2017-07-19T16:22:12.194Z,7.57
2017-07-19T16:24:39.641Z,6.73
2017-07-19T16:27:07.436Z,6.70
2017-07-19T16:29:34.885Z,6.97
2017-07-19T16:32:02.586Z,7.33
2017-07-19T16:34:30.023Z,7.07
2017-07-19T16:36:57.464Z,8.87
2017-07-19T16:39:24.905Z,6.53
2017-07-19T16:41:52.680Z,8.60
2017-07-19T16:44:20.117Z,6.50
2017-07-19T16:46:47.568Z,7.43
2017-07-19T16:49:15.280Z,7.47
2017-07-19T16:51:43.114Z,6.80
2017-07-19T16:54:10.556Z,9.23
2017-07-19T16:56:38.104Z,7.17
2017-07-19T16:59:05.535Z,7.70
2017-07-19T17:01:32.977Z,8.50
2017-07-19T17:04:00.705Z,7.27
2017-07-19T17:06:28.144Z,6.63
2017-07-19T17:08:55.591Z,10.50
2017-07-19T17:11:23.064Z,6.43
2017-07-19T17:13:50.515Z,11.73
2017-07-19T17:16:17.961Z,7.57
2017-07-19T17:18:45.429Z,6.73
2017-07-19T17:21:12.868Z,7.40
2017-07-19T17:23:40.587Z,9.57
2017-07-19T17:26:08.049Z,8.40
2017-07-19T17:28:35.489Z,8.40
2017-07-19T17:31:03.321Z,7.20
2017-07-19T17:33:30.786Z,6.47
2017-07-19T17:35:58.511Z,7.53
2017-07-19T17:38:25.945Z,7.27
2017-07-19T17:40:53.669Z,6.90
2017-07-19T17:43:21.114Z,6.80
2017-07-19T17:45:48.569Z,6.00
2017-07-19T17:48:16.328Z,7.57
2017-07-19T17:50:43.773Z,7.23
2017-07-19T17:53:11.214Z,8.60
2017-07-19T17:55:38.885Z,8.20
2017-07-19T17:58:06.328Z,8.27
2017-07-19T18:00:33.778Z,9.80
2017-07-19T18:03:01.344Z,7.30
2017-07-19T18:05:28.828Z,11.30
2017-07-19T18:07:56.269Z,6.80
2017-07-19T18:10:23.733Z,6.40
2017-07-19T18:12:51.173Z,8.87
2017-07-19T18:15:18.612Z,7.27
2017-07-19T18:17:46.077Z,7.03
2017-07-19T18:20:13.854Z,7.30
2017-07-19T18:22:41.301Z,9.00
2017-07-19T18:25:08.788Z,7.30
2017-07-19T18:27:36.279Z,7.37
2017-07-19T18:30:03.716Z,7.47
2017-07-19T18:32:31.558Z,6.73
2017-07-19T18:34:59.212Z,9.63
2017-07-19T18:37:26.668Z,6.50
2017-07-19T18:39:54.146Z,7.20
2017-07-19T18:42:21.981Z,6.10
2017-07-19T18:44:49.430Z,7.00
2017-07-19T18:47:17.165Z,9.63
2017-07-19T18:49:44.641Z,6.97
2017-07-19T18:52:12.316Z,8.07
2017-07-19T18:54:39.768Z,11.33
2017-07-19T18:57:07.215Z,7.77
2017-07-19T18:59:34.768Z,6.47
2017-07-19T19:02:02.220Z,7.07
2017-07-19T19:04:29.664Z,6.97
2017-07-19T19:06:57.139Z,7.27
2017-07-19T19:09:24.608Z,8.50
2017-07-19T19:11:52.069Z,7.43
2017-07-19T19:14:19.582Z,10.37
2017-07-19T19:16:47.153Z,8.50
2017-07-19T19:19:14.662Z,7.80
2017-07-19T19:21:42.559Z,7.30
2017-07-19T19:24:10.070Z,8.33
2017-07-19T19:26:37.600Z,8.43
2017-07-19T19:29:05.159Z,8.40
2017-07-19T19:31:32.600Z,9.30
2017-07-19T19:34:00.062Z,9.10
2017-07-19T19:36:27.572Z,11.60
2017-07-19T19:38:55.415Z,9.23
2017-07-19T19:41:23.265Z,29.47
2017-07-19T19:43:50.768Z,19.43
2017-07-19T19:46:18.217Z,7.03
2017-07-19T19:48:46.232Z,8.87
2017-07-19T19:51:13.867Z,7.00
2017-07-19T19:53:41.318Z,9.03
2017-07-19T19:56:08.803Z,8.27
2017-07-19T19:58:36.288Z,7.40
2017-07-19T20:01:04.125Z,9.50
2017-07-19T20:03:31.582Z,9.43
2017-07-19T20:05:59.045Z,10.20
2017-07-19T20:08:26.497Z,15.90
2017-07-19T20:10:53.947Z,24.03
2017-07-19T20:13:21.430Z,16.67
2017-07-19T20:15:48.884Z,19.17
2017-07-19T20:18:17.961Z,21.03
2017-07-19T20:20:47.359Z,21.37
2017-07-19T20:23:16.364Z,17.00
2017-07-19T20:25:45.494Z,15.20
2017-07-19T20:28:14.781Z,16.60
2017-07-19T20:30:44.126Z,15.67
2017-07-19T20:33:13.231Z,17.00
2017-07-19T20:35:42.636Z,18.90
2017-07-19T20:38:11.528Z,22.13
2017-07-19T20:40:39.013Z,20.53
2017-07-19T20:43:06.486Z,26.70
2017-07-19T20:45:34.072Z,23.60
2017-07-19T20:48:01.528Z,25.10
2017-07-19T20:50:28.994Z,27.47
2017-07-19T20:52:56.466Z,28.27
2017-07-19T20:55:24.324Z,45.63
2017-07-19T20:57:51.789Z,98.20
2017-07-19T21:00:19.242Z,31.50
2017-07-19T21:02:46.703Z,23.50
2017-07-19T21:05:14.585Z,24.73
2017-07-19T21:07:42.433Z,24.23
2017-07-19T21:10:10.290Z,24.03
2017-07-19T21:12:38.045Z,19.97
2017-07-19T21:15:05.492Z,20.60
2017-07-19T21:17:32.946Z,20.60
2017-07-19T21:20:00.717Z,18.97
2017-07-19T21:22:33.996Z,18.97
2017-07-19T21:25:01.469Z,20.57
2017-07-19T21:27:28.960Z,19.90
2017-07-19T21:29:56.408Z,17.63
2017-07-19T21:32:24.256Z,15.00
2017-07-19T21:34:52.410Z,14.83
2017-07-19T21:37:19.865Z,26.90
2017-07-19T21:39:47.320Z,18.73
2017-07-19T21:42:14.791Z,17.00
2017-07-19T21:44:42.245Z,14.23
2017-07-19T21:47:09.692Z,15.43
2017-07-19T21:49:37.181Z,15.80
2017-07-19T21:52:04.628Z,15.23
2017-07-19T21:54:32.086Z,15.67
2017-07-19T21:56:59.651Z,16.90
2017-07-19T21:59:27.097Z,16.40
2017-07-19T22:01:54.548Z,21.67
2017-07-19T22:04:22.428Z,14.93
2017-07-19T22:06:49.886Z,14.90
2017-07-19T22:09:17.341Z,16.00
2017-07-19T22:11:44.829Z,16.67
2017-07-19T22:14:12.289Z,17.53
2017-07-19T22:16:39.741Z,17.90
2017-07-19T22:19:07.473Z,19.77
2017-07-19T22:21:34.928Z,19.80
2017-07-19T22:24:02.376Z,18.33
2017-07-19T22:26:29.956Z,17.77
2017-07-19T22:28:57.412Z,17.23
2017-07-19T22:31:24.876Z,17.70
2017-07-19T22:33:52.628Z,17.53
2017-07-19T22:36:20.085Z,17.83
2017-07-19T22:38:48.441Z,20.03
2017-07-19T22:41:15.912Z,19.50
2017-07-19T22:43:43.372Z,19.60
2017-07-19T22:46:10.824Z,21.53
2017-07-19T22:48:38.391Z,20.23
2017-07-19T22:51:05.836Z,21.70
2017-07-19T22:53:33.285Z,23.87
2017-07-19T22:56:00.976Z,21.90
2017-07-19T22:58:28.425Z,33.03
2017-07-19T23:00:55.872Z,32.10
2017-07-19T23:03:23.550Z,22.90
2017-07-19T23:05:51.000Z,23.47
2017-07-19T23:08:18.445Z,22.63
2017-07-19T23:10:45.915Z,22.13
2017-07-19T23:13:13.351Z,23.50
2017-07-19T23:15:40.795Z,22.20
2017-07-19T23:18:08.256Z,23.23
2017-07-19T23:20:35.709Z,23.10
2017-07-19T23:23:03.149Z,25.30
2017-07-19T23:25:30.632Z,22.90
2017-07-19T23:27:58.073Z,23.73
2017-07-19T23:30:25.511Z,22.87
2017-07-19T23:32:52.988Z,22.30
2017-07-19T23:35:20.440Z,21.60
2017-07-19T23:37:47.890Z,22.50
2017-07-19T23:40:15.681Z,21.23
2017-07-19T23:42:43.124Z,20.67
2017-07-19T23:45:10.573Z,22.07
2017-07-19T23:47:38.037Z,20.73
2017-07-19T23:50:05.491Z,20.90
2017-07-19T23:52:32.931Z,19.53
2017-07-19T23:55:00.722Z,19.93
2017-07-19T23:57:28.172Z,22.37
2017-07-19T23:59:55.616Z,20.93
